createdAt,value
2022-11-11T00:00:50.709Z,96.77
2022-11-11T00:03:36.985Z,96.77
2022-11-11T00:06:23.416Z,96.80
2022-11-11T00:09:10.595Z,96.76
2022-11-11T00:11:56.907Z,96.82
2022-11-11T00:14:43.299Z,96.90
2022-11-11T00:17:48.330Z,96.86
2022-11-11T00:20:55.019Z,96.65
2022-11-11T00:24:00.159Z,96.68
2022-11-11T00:26:46.330Z,96.55
2022-11-11T00:29:33.098Z,96.35
2022-11-11T00:32:23.012Z,96.10
2022-11-11T00:35:29.371Z,96.07
2022-11-11T00:38:35.862Z,96.06
2022-11-11T00:41:26.961Z,95.91
2022-11-11T00:44:13.360Z,95.91
2022-11-11T00:47:18.288Z,95.99
2022-11-11T00:50:25.663Z,95.94
2022-11-11T00:53:15.357Z,95.94
2022-11-11T00:56:02.056Z,95.80
2022-11-11T00:58:49.138Z,95.92
2022-11-11T01:01:37.642Z,95.88
2022-11-11T01:04:24.074Z,95.74
2022-11-11T01:07:10.837Z,95.76
2022-11-11T01:09:57.432Z,95.75
2022-11-11T01:12:43.904Z,95.67
2022-11-11T01:15:33.862Z,95.69
2022-11-11T01:18:23.697Z,95.65
2022-11-11T01:21:16.503Z,95.39
2022-11-11T01:24:07.782Z,95.53
2022-11-11T01:26:54.431Z,95.55
2022-11-11T01:29:40.880Z,95.56
2022-11-11T01:32:27.251Z,95.58
2022-11-11T01:35:13.351Z,95.56
2022-11-11T01:38:00.091Z,95.61
2022-11-11T01:40:48.414Z,95.57
2022-11-11T01:43:34.791Z,95.42
2022-11-11T01:46:43.376Z,95.57
2022-11-11T01:50:00.906Z,95.59
2022-11-11T01:52:47.314Z,95.39
2022-11-11T01:55:33.639Z,95.55
2022-11-11T01:58:21.050Z,95.42
2022-11-11T02:01:07.851Z,95.52
2022-11-11T02:04:15.459Z,95.26
2022-11-11T02:07:05.620Z,95.26
2022-11-11T02:09:54.140Z,95.43
2022-11-11T02:15:45.342Z,95.40
2022-11-11T02:18:33.041Z,95.46
2022-11-11T02:21:35.619Z,95.39
2022-11-11T02:24:23.553Z,95.42
2022-11-11T02:27:13.610Z,95.49
2022-11-11T02:30:01.902Z,95.40
2022-11-11T02:32:50.351Z,95.31
2022-11-11T02:35:40.742Z,95.35
2022-11-11T02:38:27.785Z,95.24
2022-11-11T02:41:33.002Z,95.39
2022-11-11T02:44:19.604Z,95.42
2022-11-11T02:47:06.237Z,95.35
2022-11-11T02:49:54.210Z,95.41
2022-11-11T02:52:41.344Z,95.36
2022-11-11T02:55:27.984Z,95.39
2022-11-11T02:58:15.953Z,95.53
2022-11-11T03:01:02.526Z,95.56
2022-11-11T03:03:49.353Z,95.57
2022-11-11T03:06:35.906Z,95.58
2022-11-11T03:09:22.817Z,95.67
2022-11-11T03:12:09.524Z,95.75
2022-11-11T03:14:55.794Z,95.73
2022-11-11T03:17:42.487Z,95.68
2022-11-11T03:20:47.373Z,95.73
2022-11-11T03:23:34.018Z,95.70
2022-11-11T03:26:20.161Z,95.75
2022-11-11T03:29:06.544Z,95.66
2022-11-11T03:31:52.888Z,95.75
2022-11-11T03:34:39.792Z,95.80
2022-11-11T03:37:44.454Z,95.76
2022-11-11T03:40:30.870Z,95.75
2022-11-11T03:43:19.023Z,95.80
2022-11-11T03:46:06.126Z,95.84
2022-11-11T03:48:52.769Z,95.86
2022-11-11T03:51:39.396Z,95.80
2022-11-11T03:54:25.953Z,95.67
2022-11-11T03:57:30.572Z,95.68
2022-11-11T04:00:23.395Z,95.79
2022-11-11T04:03:33.592Z,95.68
2022-11-11T04:06:38.467Z,95.71
2022-11-11T04:09:43.240Z,95.87
2022-11-11T04:12:31.824Z,95.87
2022-11-11T04:15:36.696Z,95.82
2022-11-11T04:18:43.170Z,95.89
2022-11-11T04:21:44.433Z,95.92
2022-11-11T04:24:49.283Z,95.78
2022-11-11T04:27:35.627Z,95.77
2022-11-11T04:30:22.053Z,95.77
2022-11-11T04:33:08.633Z,95.96
2022-11-11T04:35:54.954Z,95.81
2022-11-11T04:39:00.011Z,95.94
2022-11-11T04:42:07.088Z,95.91
2022-11-11T04:45:11.704Z,95.99
2022-11-11T04:48:05.307Z,95.97
2022-11-11T04:50:52.359Z,96.01
2022-11-11T04:53:38.626Z,95.87
2022-11-11T04:56:43.796Z,95.94
2022-11-11T04:59:30.268Z,95.86
2022-11-11T05:02:35.351Z,95.92
2022-11-11T05:05:22.402Z,96.01
2022-11-11T05:08:27.915Z,96.06
2022-11-11T05:11:15.324Z,95.97
2022-11-11T05:14:22.613Z,95.97
2022-11-11T05:17:29.515Z,96.03
2022-11-11T05:20:38.758Z,96.16
2022-11-11T05:23:45.403Z,96.26
2022-11-11T05:26:32.379Z,96.25
2022-11-11T05:29:18.846Z,96.37
2022-11-11T05:32:07.412Z,96.41
2022-11-11T05:34:54.067Z,96.36
2022-11-11T05:37:41.199Z,96.39
2022-11-11T05:40:27.392Z,96.42
2022-11-11T05:43:14.274Z,96.36
2022-11-11T05:46:00.719Z,96.17
2022-11-11T05:49:05.630Z,96.16
2022-11-11T05:51:53.317Z,96.17
2022-11-11T05:54:40.360Z,96.13
2022-11-11T05:57:29.452Z,96.29
2022-11-11T06:00:16.206Z,96.25
2022-11-11T06:03:04.424Z,96.31
2022-11-11T06:05:51.618Z,96.39
2022-11-11T06:08:40.094Z,96.40
2022-11-11T06:11:32.482Z,96.27
2022-11-11T06:14:19.479Z,96.31
2022-11-11T06:17:07.648Z,96.24
2022-11-11T06:19:53.968Z,96.19
2022-11-11T06:22:58.905Z,96.12
2022-11-11T06:26:04.398Z,96.22
2022-11-11T06:28:56.387Z,96.11
2022-11-11T06:31:45.393Z,95.99
2022-11-11T06:34:31.774Z,95.94
2022-11-11T06:37:18.147Z,96.01
2022-11-11T06:40:05.215Z,95.85
2022-11-11T06:42:51.540Z,95.89
2022-11-11T06:45:40.572Z,95.86
2022-11-11T06:48:29.051Z,96.14
2022-11-11T06:51:15.659Z,96.10
2022-11-11T06:54:01.936Z,96.07
2022-11-11T06:56:49.212Z,96.15
2022-11-11T06:59:35.585Z,96.25
2022-11-11T07:02:22.186Z,96.25
2022-11-11T07:05:11.745Z,96.13
2022-11-11T07:08:01.180Z,96.13
2022-11-11T07:10:48.913Z,96.04
2022-11-11T07:13:35.102Z,95.96
2022-11-11T07:16:21.310Z,95.90
2022-11-11T07:19:07.923Z,95.99
2022-11-11T07:21:54.389Z,95.99
2022-11-11T07:24:40.791Z,95.94
2022-11-11T07:27:27.277Z,95.75
2022-11-11T07:30:13.911Z,95.81
2022-11-11T07:33:02.543Z,95.76
2022-11-11T07:35:52.035Z,95.63
2022-11-11T07:38:38.585Z,95.51
2022-11-11T07:41:25.141Z,95.54
2022-11-11T07:44:11.699Z,95.44
2022-11-11T07:46:58.351Z,95.41
2022-11-11T07:49:44.651Z,95.61
2022-11-11T07:52:31.054Z,95.53
2022-11-11T07:55:18.837Z,95.29
2022-11-11T07:58:04.978Z,95.33
2022-11-11T08:00:51.546Z,95.21
2022-11-11T08:03:49.728Z,95.03
2022-11-11T08:06:36.647Z,95.02
2022-11-11T08:09:23.078Z,95.05
2022-11-11T08:12:28.540Z,95.00
2022-11-11T08:15:15.029Z,94.81
2022-11-11T08:18:01.517Z,94.58
2022-11-11T08:20:53.557Z,94.50
2022-11-11T08:24:22.626Z,94.53
2022-11-11T08:26:49.283Z,94.47
2022-11-11T08:29:35.498Z,94.29
2022-11-11T08:32:21.909Z,93.97
2022-11-11T08:35:08.561Z,93.71
2022-11-11T08:37:55.240Z,93.89
2022-11-11T08:40:41.625Z,93.71
2022-11-11T08:43:31.587Z,93.98
2022-11-11T08:46:22.917Z,94.02
2022-11-11T08:49:11.322Z,93.85
2022-11-11T08:51:57.866Z,93.74
2022-11-11T08:54:44.296Z,93.70
2022-11-11T08:57:30.984Z,93.39
2022-11-11T09:00:19.812Z,93.24
2022-11-11T09:03:08.416Z,93.45
2022-11-11T09:05:54.621Z,93.52
2022-11-11T09:08:44.721Z,93.39
2022-11-11T09:11:36.456Z,93.40
2022-11-11T09:14:22.929Z,93.11
2022-11-11T09:17:09.347Z,93.05
2022-11-11T09:19:55.888Z,93.01
2022-11-11T09:22:46.378Z,93.03
2022-11-11T09:25:32.968Z,93.04
2022-11-11T09:28:19.537Z,92.84
2022-11-11T09:31:37.750Z,92.77
2022-11-11T09:34:13.690Z,92.85
2022-11-11T09:36:59.974Z,92.57
2022-11-11T09:39:46.387Z,92.43
2022-11-11T09:42:44.672Z,92.19
2022-11-11T09:45:56.752Z,91.97
2022-11-11T09:49:16.014Z,91.58
2022-11-11T09:52:05.019Z,91.58
2022-11-11T09:54:54.118Z,91.55
2022-11-11T09:57:59.018Z,91.26
2022-11-11T10:00:50.895Z,91.62
2022-11-11T10:04:01.244Z,91.09
2022-11-11T10:06:50.264Z,91.46
2022-11-11T10:09:52.024Z,90.93
2022-11-11T10:12:52.092Z,90.69
2022-11-11T10:15:52.600Z,90.52
2022-11-11T10:18:47.282Z,90.58
2022-11-11T10:22:05.668Z,90.19
2022-11-11T10:25:09.307Z,90.04
2022-11-11T10:27:59.361Z,89.80
2022-11-11T10:30:47.835Z,89.76
2022-11-11T10:33:50.809Z,89.78
2022-11-11T10:36:44.749Z,89.67
2022-11-11T10:40:04.885Z,89.46
2022-11-11T10:42:51.319Z,89.14
2022-11-11T10:46:00.270Z,89.08
2022-11-11T10:48:53.085Z,88.59
2022-11-11T10:52:05.157Z,88.52
2022-11-11T10:55:16.393Z,88.74
2022-11-11T10:58:08.902Z,88.38
2022-11-11T11:00:56.918Z,88.26
2022-11-11T11:03:49.601Z,88.35
2022-11-11T11:06:41.198Z,87.89
2022-11-11T11:09:31.839Z,87.74
2022-11-11T11:12:28.260Z,87.50
2022-11-11T11:15:19.432Z,87.13
2022-11-11T11:18:10.483Z,87.01
2022-11-11T11:21:05.817Z,86.68
2022-11-11T11:23:52.190Z,86.22
2022-11-11T11:26:47.675Z,86.06
2022-11-11T11:29:43.305Z,85.64
2022-11-11T11:32:31.190Z,85.34
2022-11-11T11:35:50.055Z,85.15
2022-11-11T11:38:46.646Z,84.79
2022-11-11T11:41:50.396Z,84.83
2022-11-11T11:44:38.957Z,84.58
2022-11-11T11:48:16.581Z,84.33
2022-11-11T11:51:32.674Z,83.80
2022-11-11T11:54:57.053Z,83.65
2022-11-11T11:57:48.634Z,83.46
2022-11-11T12:00:59.888Z,83.15
2022-11-11T12:04:12.325Z,83.18
2022-11-11T12:07:24.964Z,83.16
2022-11-11T12:10:29.228Z,83.17
2022-11-11T12:13:38.637Z,82.78
2022-11-11T12:16:29.364Z,83.02
2022-11-11T12:19:33.571Z,83.02
2022-11-11T12:22:44.678Z,82.93
2022-11-11T12:25:58.489Z,82.99
2022-11-11T12:29:14.328Z,82.77
2022-11-11T12:32:24.821Z,82.95
2022-11-11T12:35:36.516Z,82.66
2022-11-11T12:38:38.306Z,82.95
2022-11-11T12:41:52.375Z,83.09
2022-11-11T12:45:10.142Z,82.87
2022-11-11T12:48:25.570Z,83.02
2022-11-11T12:51:30.190Z,83.42
2022-11-11T12:54:54.679Z,83.54
2022-11-11T12:58:12.098Z,83.81
2022-11-11T13:01:21.870Z,83.57
2022-11-11T13:04:29.990Z,83.43
2022-11-11T13:07:58.044Z,83.43
2022-11-11T13:11:12.898Z,83.81
2022-11-11T13:13:59.542Z,83.70
2022-11-11T13:16:46.019Z,83.74
2022-11-11T13:19:41.691Z,83.99
2022-11-11T13:22:32.642Z,84.31
2022-11-11T13:25:29.084Z,84.20
2022-11-11T13:28:18.125Z,84.46
2022-11-11T13:31:33.459Z,84.67
2022-11-11T13:34:21.009Z,84.99
2022-11-11T13:37:17.188Z,84.68
2022-11-11T13:40:12.587Z,84.95
2022-11-11T13:42:59.204Z,84.40
2022-11-11T13:45:55.994Z,84.92
2022-11-11T13:48:48.996Z,84.66
2022-11-11T13:51:44.788Z,84.59
2022-11-11T13:54:42.380Z,84.81
2022-11-11T13:57:32.273Z,85.08
2022-11-11T14:00:18.854Z,85.10
2022-11-11T14:03:20.791Z,85.32
2022-11-11T14:06:18.402Z,85.29
2022-11-11T14:09:07.889Z,85.45
2022-11-11T14:12:20.885Z,85.55
2022-11-11T14:15:35.079Z,85.82
2022-11-11T14:18:26.771Z,86.07
2022-11-11T14:21:47.907Z,86.10
2022-11-11T14:24:39.210Z,86.08
2022-11-11T14:27:35.136Z,86.26
2022-11-11T14:30:39.553Z,86.60
2022-11-11T14:33:35.126Z,86.74
2022-11-11T14:36:30.034Z,86.80
2022-11-11T14:39:25.372Z,86.60
2022-11-11T14:42:45.128Z,87.06
2022-11-11T14:45:31.609Z,87.34
2022-11-11T14:48:59.567Z,87.44
2022-11-11T14:51:48.907Z,87.52
2022-11-11T14:54:52.093Z,87.71
2022-11-11T14:57:50.056Z,88.06
2022-11-11T15:00:53.423Z,87.99
2022-11-11T15:03:44.872Z,87.87
2022-11-11T15:06:51.917Z,88.00
2022-11-11T15:09:56.724Z,88.11
2022-11-11T15:13:03.488Z,88.41
2022-11-11T15:16:14.159Z,88.44
2022-11-11T15:19:29.127Z,88.85
2022-11-11T15:22:39.493Z,89.18
2022-11-11T15:25:49.435Z,89.22
2022-11-11T15:29:05.366Z,89.45
2022-11-11T15:32:11.627Z,89.48
2022-11-11T15:35:09.054Z,89.83
2022-11-11T15:38:01.702Z,90.04
2022-11-11T15:40:50.875Z,90.18
2022-11-11T15:43:40.332Z,90.31
2022-11-11T15:46:29.890Z,90.34
2022-11-11T15:49:43.636Z,90.40
2022-11-11T15:52:42.152Z,90.85
2022-11-11T15:55:35.204Z,91.12
2022-11-11T15:58:29.292Z,91.19
2022-11-11T16:01:16.562Z,91.27
2022-11-11T16:04:08.800Z,91.42
2022-11-11T16:06:58.491Z,91.68
2022-11-11T16:09:46.256Z,91.59
2022-11-11T16:12:50.585Z,91.72
2022-11-11T16:15:52.427Z,91.87
2022-11-11T16:18:53.543Z,91.96
2022-11-11T16:21:50.531Z,92.03
2022-11-11T16:24:43.422Z,91.99
2022-11-11T16:27:32.587Z,91.94
2022-11-11T16:30:34.014Z,92.14
2022-11-11T16:33:27.621Z,92.18
2022-11-11T16:36:14.365Z,92.45
2022-11-11T16:39:26.389Z,92.84
2022-11-11T16:42:29.879Z,93.17
2022-11-11T16:45:21.890Z,93.24
2022-11-11T16:48:34.521Z,93.64
2022-11-11T16:51:47.095Z,93.69
2022-11-11T16:54:38.030Z,93.93
2022-11-11T16:57:30.915Z,94.06
2022-11-11T17:00:22.879Z,94.17
2022-11-11T17:03:12.394Z,94.37
2022-11-11T17:06:10.556Z,94.75
2022-11-11T17:08:56.982Z,94.92
2022-11-11T17:11:45.416Z,94.96
2022-11-11T17:14:37.189Z,95.07
2022-11-11T17:17:24.349Z,95.23
2022-11-11T17:20:18.182Z,95.65
2022-11-11T17:23:06.418Z,95.65
2022-11-11T17:25:57.501Z,95.67
2022-11-11T17:28:43.675Z,95.73
2022-11-11T17:31:30.251Z,95.71
2022-11-11T17:34:16.566Z,95.84
2022-11-11T17:37:03.339Z,95.58
2022-11-11T17:39:50.616Z,95.37
2022-11-11T17:42:37.199Z,95.58
2022-11-11T17:45:23.890Z,95.87
2022-11-11T17:48:11.314Z,95.92
2022-11-11T17:50:58.232Z,96.20
2022-11-11T17:53:44.409Z,96.16
2022-11-11T17:56:31.281Z,96.04
2022-11-11T17:59:17.348Z,95.99
2022-11-11T18:02:04.036Z,95.88
2022-11-11T18:04:51.072Z,95.96
2022-11-11T18:07:42.594Z,95.67
2022-11-11T18:10:31.590Z,95.85
2022-11-11T18:13:17.976Z,96.01
2022-11-11T18:16:06.229Z,96.19
2022-11-11T18:18:54.565Z,96.17
2022-11-11T18:21:42.341Z,96.22
2022-11-11T18:24:28.549Z,96.42
2022-11-11T18:27:15.560Z,96.78
2022-11-11T18:30:01.951Z,96.63
2022-11-11T18:32:48.473Z,96.78
2022-11-11T18:35:35.073Z,97.16
2022-11-11T18:38:21.567Z,97.46
2022-11-11T18:41:14.296Z,97.43
2022-11-11T18:44:00.775Z,97.63
2022-11-11T18:46:47.869Z,97.66
2022-11-11T18:49:34.268Z,97.72
2022-11-11T18:52:20.763Z,98.47
2022-11-11T18:55:08.015Z,98.06
2022-11-11T18:57:54.534Z,98.53
2022-11-11T19:00:41.456Z,98.54
2022-11-11T19:03:28.237Z,98.57
2022-11-11T19:06:16.157Z,98.50
2022-11-11T19:09:10.774Z,98.76
2022-11-11T19:11:57.378Z,98.43
2022-11-11T19:14:44.095Z,98.88
2022-11-11T19:17:30.558Z,98.78
2022-11-11T19:20:17.273Z,98.82
2022-11-11T19:23:03.855Z,99.15
2022-11-11T19:25:50.498Z,99.10
2022-11-11T19:28:37.814Z,98.94
2022-11-11T19:31:26.797Z,99.10
2022-11-11T19:34:13.302Z,99.53
2022-11-11T19:37:02.973Z,99.41
2022-11-11T19:39:49.911Z,99.89
2022-11-11T19:42:36.181Z,99.99
2022-11-11T19:45:22.566Z,99.66
2022-11-11T19:48:09.465Z,99.47
2022-11-11T19:51:15.017Z,99.34
2022-11-11T19:54:01.611Z,99.49
2022-11-11T19:56:48.469Z,99.99
2022-11-11T19:59:35.150Z,99.51
2022-11-11T20:02:21.711Z,99.57
2022-11-11T20:05:08.938Z,99.80
2022-11-11T20:07:56.361Z,99.76
2022-11-11T20:10:45.271Z,99.71
2022-11-11T20:13:31.778Z,99.73
2022-11-11T20:16:19.476Z,99.99
2022-11-11T20:19:06.006Z,99.70
2022-11-11T20:21:52.384Z,99.81
2022-11-11T20:24:40.207Z,99.76
2022-11-11T20:27:28.278Z,99.97
2022-11-11T20:30:14.758Z,99.99
2022-11-11T20:33:01.042Z,99.99
2022-11-11T20:35:47.567Z,99.99
2022-11-11T20:38:34.834Z,99.99
2022-11-11T20:41:21.592Z,99.99
2022-11-11T20:44:10.983Z,99.99
2022-11-11T20:46:57.346Z,99.99
2022-11-11T20:49:44.227Z,99.99
2022-11-11T20:52:30.893Z,99.99
2022-11-11T20:55:17.667Z,99.99
2022-11-11T20:58:04.615Z,99.99
2022-11-11T21:00:52.585Z,99.99
2022-11-11T21:03:39.750Z,99.99
2022-11-11T21:06:27.722Z,99.99
2022-11-11T21:09:14.625Z,99.99
2022-11-11T21:12:02.779Z,99.99
2022-11-11T21:14:49.501Z,99.99
2022-11-11T21:17:38.437Z,99.99
2022-11-11T21:20:26.625Z,99.99
2022-11-11T21:23:13.384Z,99.99
2022-11-11T21:26:09.124Z,99.99
2022-11-11T21:28:55.649Z,99.99
2022-11-11T21:31:45.528Z,99.99
2022-11-11T21:34:32.314Z,99.99
2022-11-11T21:37:18.803Z,99.99
2022-11-11T21:40:06.095Z,99.99
2022-11-11T21:42:57.771Z,99.99
2022-11-11T21:45:44.519Z,99.99
2022-11-11T21:48:31.805Z,99.99
2022-11-11T21:51:20.673Z,99.99
2022-11-11T21:54:11.827Z,99.99
2022-11-11T21:56:58.783Z,99.99
2022-11-11T21:59:44.937Z,99.99
2022-11-11T22:02:31.820Z,99.99
2022-11-11T22:05:18.313Z,99.99
2022-11-11T22:08:05.195Z,99.99
2022-11-11T22:10:51.801Z,99.99
2022-11-11T22:13:39.429Z,99.99
2022-11-11T22:16:31.752Z,99.99
2022-11-11T22:19:18.413Z,99.99
2022-11-11T22:22:05.027Z,99.99
2022-11-11T22:24:57.259Z,99.99
2022-11-11T22:27:46.353Z,99.99
2022-11-11T22:30:32.574Z,99.99
2022-11-11T22:33:19.328Z,99.99
2022-11-11T22:36:11.320Z,99.99
2022-11-11T22:39:03.250Z,99.99
2022-11-11T22:41:50.723Z,99.99
2022-11-11T22:44:37.475Z,99.99
2022-11-11T22:47:24.031Z,99.99
2022-11-11T22:50:10.891Z,99.99
2022-11-11T22:52:57.281Z,99.99
2022-11-11T22:55:46.370Z,99.99
2022-11-11T22:58:37.290Z,99.99
2022-11-11T23:01:30.496Z,99.99
2022-11-11T23:04:18.034Z,99.99
2022-11-11T23:07:04.523Z,99.99
2022-11-11T23:09:50.915Z,99.99
2022-11-11T23:12:37.485Z,99.99
2022-11-11T23:15:24.014Z,99.99
2022-11-11T23:18:10.717Z,99.99
2022-11-11T23:21:06.591Z,99.99
2022-11-11T23:23:53.405Z,99.99
2022-11-11T23:26:39.965Z,99.99
2022-11-11T23:29:26.391Z,99.99
2022-11-11T23:32:13.186Z,99.99
2022-11-11T23:34:59.496Z,99.99
2022-11-11T23:37:45.852Z,99.99
2022-11-11T23:40:32.365Z,99.99
2022-11-11T23:43:18.833Z,99.99
2022-11-11T23:46:06.226Z,99.99
2022-11-11T23:48:52.340Z,99.99
2022-11-11T23:51:38.549Z,99.99
2022-11-11T23:54:25.310Z,99.99
2022-11-11T23:57:11.917Z,99.99
